Time;durP1;ratioP1;P1;durP2;ratioP2;P2;SDS_P1;SDS_P2;PMS_P1;PMS_P2;Temp;Humidity;BMP_temperature;BMP_pressure;BME280_temperature;BME280_humidity;BME280_pressure;Samples;Min_cycle;Max_cycle;Signal;HPM_P1;HPM_P2
2022/03/06 00:02:17;;;;;;;19.83;11.43;;;2.20;94.50;;;;;;5049859;28;20041;-79
2022/03/06 00:04:42;;;;;;;16.67;10.02;;;2.20;94.50;;;;;;5033766;28;20041;-79
2022/03/06 00:07:08;;;;;;;20.05;10.60;;;2.20;94.50;;;;;;5049947;28;20033;-79
2022/03/06 00:09:34;;;;;;;17.30;10.90;;;2.10;94.80;;;;;;5050457;28;20417;-79
2022/03/06 00:11:59;;;;;;;17.95;10.30;;;2.20;94.90;;;;;;5049828;28;20037;-79
2022/03/06 00:14:25;;;;;;;17.90;10.70;;;2.20;94.80;;;;;;5050377;28;20045;-79
2022/03/06 00:16:52;;;;;;;18.02;10.95;;;2.10;94.90;;;;;;5050000;28;20043;-79
2022/03/06 00:19:18;;;;;;;19.83;11.60;;;2.10;95.20;;;;;;5050063;28;20048;-79
2022/03/06 00:21:43;;;;;;;16.63;10.50;;;2.10;95.10;;;;;;5049985;28;20056;-79
2022/03/06 00:24:09;;;;;;;19.00;10.52;;;2.10;95.50;;;;;;5049947;28;20041;-79
2022/03/06 00:26:35;;;;;;;19.45;11.32;;;2.10;95.50;;;;;;5049698;28;20029;-79
2022/03/06 00:29:01;;;;;;;18.50;10.77;;;2.00;95.50;;;;;;5049873;28;20166;-79
2022/03/06 00:31:26;;;;;;;16.42;10.35;;;2.10;95.70;;;;;;5049962;28;20091;-79
2022/03/06 00:33:52;;;;;;;16.52;11.63;;;2.00;95.60;;;;;;5049703;28;20037;-79
2022/03/06 00:36:18;;;;;;;18.17;11.38;;;2.00;95.50;;;;;;5049903;28;20045;-79
2022/03/06 00:38:44;;;;;;;18.98;11.32;;;2.00;95.80;;;;;;5049780;28;20142;-79
2022/03/06 00:41:12;;;;;;;18.50;11.18;;;2.00;96.10;;;;;;5033323;28;20056;-79
2022/03/06 00:43:38;;;;;;;18.45;10.60;;;2.00;96.00;;;;;;5033133;28;20060;-79
2022/03/06 00:46:04;;;;;;;18.40;11.73;;;1.90;96.30;;;;;;5049714;28;20048;-79
2022/03/06 00:48:29;;;;;;;18.10;10.52;;;1.90;96.20;;;;;;5049540;28;20071;-79
2022/03/06 00:50:55;;;;;;;18.83;11.40;;;1.90;96.70;;;;;;5033064;28;20048;-79
2022/03/06 00:53:21;;;;;;;18.05;12.00;;;1.80;96.60;;;;;;5049984;28;20048;-79
2022/03/06 00:55:46;;;;;;;19.75;12.40;;;1.80;96.80;;;;;;5050513;28;20409;-79
2022/03/06 00:58:12;;;;;;;21.73;12.18;;;1.70;96.90;;;;;;5053226;28;20076;-79
2022/03/06 01:00:40;;;;;;;18.75;12.27;;;1.70;97.20;;;;;;5053612;28;20041;-79
2022/03/06 01:03:15;;;;;;;19.77;12.57;;;1.70;97.10;;;;;;5053158;28;20044;-79
2022/03/06 01:05:41;;;;;;;18.50;11.77;;;1.60;97.30;;;;;;5053275;28;20040;-79
2022/03/06 01:08:08;;;;;;;21.10;13.00;;;1.60;97.70;;;;;;5053045;28;20204;-79
2022/03/06 01:10:35;;;;;;;19.80;12.23;;;1.60;97.90;;;;;;5053260;28;20037;-79
2022/03/06 01:13:02;;;;;;;17.80;12.00;;;1.50;97.80;;;;;;5052905;28;20033;-79
2022/03/06 01:15:28;;;;;;;18.65;12.65;;;1.50;98.10;;;;;;5036527;28;20477;-79
2022/03/06 01:17:54;;;;;;;20.67;11.70;;;1.50;98.20;;;;;;5052611;28;20063;-79
2022/03/06 01:20:19;;;;;;;20.85;13.05;;;1.40;98.30;;;;;;5052997;28;20040;-79
2022/03/06 01:22:46;;;;;;;20.35;12.80;;;1.40;98.20;;;;;;5053013;28;20037;-79
2022/03/06 01:25:12;;;;;;;22.35;13.65;;;1.40;98.20;;;;;;5053249;28;20552;-79
2022/03/06 01:27:38;;;;;;;21.40;13.50;;;1.40;98.20;;;;;;5035889;28;20041;-79
2022/03/06 01:30:06;;;;;;;19.52;12.43;;;1.40;98.20;;;;;;5036506;28;20375;-79
2022/03/06 01:32:33;;;;;;;19.17;12.63;;;1.40;98.40;;;;;;5036360;28;20041;-79
2022/03/06 01:34:59;;;;;;;19.08;12.15;;;1.40;98.50;;;;;;5052728;28;20476;-79
2022/03/06 01:37:25;;;;;;;20.42;12.68;;;1.40;98.60;;;;;;5035805;28;20082;-79
2022/03/06 01:39:51;;;;;;;17.88;11.55;;;1.40;98.40;;;;;;5052429;28;20033;-79
2022/03/06 01:42:17;;;;;;;17.38;11.48;;;1.40;98.40;;;;;;5052534;28;20079;-79
2022/03/06 01:44:46;;;;;;;20.58;12.68;;;1.40;98.40;;;;;;5052759;28;20062;-79
2022/03/06 01:47:12;;;;;;;17.17;10.95;;;1.40;98.80;;;;;;5052411;28;20041;-79
2022/03/06 01:49:38;;;;;;;18.08;12.02;;;1.40;98.90;;;;;;5052663;28;20402;-79
2022/03/06 01:52:04;;;;;;;18.90;12.40;;;1.40;99.20;;;;;;5052240;28;20113;-79
2022/03/06 01:54:29;;;;;;;19.20;11.68;;;1.30;98.80;;;;;;5035659;28;20118;-79
2022/03/06 01:56:55;;;;;;;20.42;10.88;;;1.30;98.70;;;;;;5052126;28;20038;-79
2022/03/06 01:59:23;;;;;;;19.85;12.02;;;1.20;99.40;;;;;;5053614;28;20033;-79
2022/03/06 02:01:49;;;;;;;19.95;11.52;;;1.20;99.70;;;;;;5053422;28;20033;-80
2022/03/06 02:04:15;;;;;;;18.67;11.60;;;1.10;99.50;;;;;;5052340;28;20040;-80
2022/03/06 02:06:41;;;;;;;15.10;10.02;;;1.10;99.50;;;;;;5051372;28;20496;-80
2022/03/06 02:09:07;;;;;;;19.10;11.38;;;1.00;99.50;;;;;;5051819;28;20045;-80
2022/03/06 02:11:32;;;;;;;15.93;10.73;;;1.00;99.90;;;;;;5035684;28;20041;-80
2022/03/06 02:14:02;;;;;;;17.70;11.40;;;1.00;99.80;;;;;;5052154;28;20075;-80
2022/03/06 02:16:30;;;;;;;16.73;11.30;;;0.90;99.70;;;;;;5052351;28;20052;-80
2022/03/06 02:18:56;;;;;;;19.67;11.48;;;0.90;99.90;;;;;;5051800;28;20045;-80
2022/03/06 02:21:22;;;;;;;18.27;11.70;;;0.90;99.90;;;;;;5051850;28;20048;-80
2022/03/06 02:23:47;;;;;;;17.45;11.20;;;0.90;99.90;;;;;;5051965;28;20174;-80
2022/03/06 02:26:13;;;;;;;18.65;11.63;;;0.80;99.90;;;;;;5035384;28;20410;-80
2022/03/06 02:28:39;;;;;;;16.63;10.48;;;0.80;99.90;;;;;;5034898;28;20037;-80
2022/03/06 02:31:05;;;;;;;18.88;11.48;;;0.80;99.90;;;;;;5035080;28;20032;-80
2022/03/06 02:33:30;;;;;;;19.23;11.45;;;0.80;99.90;;;;;;5051492;28;20064;-80
2022/03/06 02:35:56;;;;;;;18.27;11.70;;;0.70;99.90;;;;;;5051584;28;20037;-80
2022/03/06 02:38:22;;;;;;;17.67;11.23;;;0.70;99.90;;;;;;5034752;28;20051;-80
2022/03/06 02:40:48;;;;;;;19.65;11.80;;;0.70;99.90;;;;;;5051267;28;20120;-80
2022/03/06 02:43:15;;;;;;;16.70;10.40;;;0.60;99.90;;;;;;5034932;28;20175;-80
2022/03/06 02:45:41;;;;;;;18.50;11.35;;;0.60;99.90;;;;;;5051707;28;20055;-80
2022/03/06 02:48:08;;;;;;;20.42;12.05;;;0.60;99.90;;;;;;5051296;28;20095;-80
2022/03/06 02:50:36;;;;;;;18.52;11.48;;;0.60;99.90;;;;;;5034636;28;20048;-80
2022/03/06 02:53:05;;;;;;;17.48;11.10;;;0.60;99.90;;;;;;5051319;28;20037;-80
2022/03/06 02:55:31;;;;;;;18.45;11.55;;;0.60;99.90;;;;;;5050943;28;20036;-80
2022/03/06 02:57:57;;;;;;;16.15;11.00;;;0.60;99.90;;;;;;5034570;28;20496;-80
2022/03/06 03:00:25;;;;;;;19.00;10.68;;;0.50;99.90;;;;;;5051187;28;20080;-80
2022/03/06 03:02:51;;;;;;;18.42;10.32;;;0.50;99.90;;;;;;5050863;28;20459;-80
2022/03/06 03:05:18;;;;;;;19.10;10.95;;;0.50;99.90;;;;;;5051369;28;20033;-80
2022/03/06 03:07:48;;;;;;;18.73;11.55;;;0.50;99.90;;;;;;5050523;28;20041;-80
2022/03/06 03:10:16;;;;;;;17.65;10.95;;;0.50;99.90;;;;;;5051214;28;20189;-80
2022/03/06 03:12:43;;;;;;;17.65;11.10;;;0.50;99.90;;;;;;5034138;28;20033;-80
2022/03/06 03:15:10;;;;;;;16.08;10.35;;;0.50;99.90;;;;;;5050948;28;20033;-80
2022/03/06 03:17:37;;;;;;;17.80;10.98;;;0.50;99.90;;;;;;5050923;28;20498;-80
2022/03/06 03:20:04;;;;;;;16.40;10.32;;;0.50;99.90;;;;;;5050711;28;20555;-80
2022/03/06 03:22:30;;;;;;;16.60;10.73;;;0.40;99.90;;;;;;5050525;28;20056;-80
2022/03/06 03:24:55;;;;;;;18.00;10.98;;;0.40;99.90;;;;;;5034310;28;20040;-80
2022/03/06 03:27:21;;;;;;;18.88;11.35;;;0.50;99.90;;;;;;5034125;28;20041;-80
2022/03/06 03:29:47;;;;;;;17.08;10.45;;;0.50;99.90;;;;;;5034001;28;20409;-80
2022/03/06 03:32:12;;;;;;;18.42;10.75;;;0.50;99.90;;;;;;5051652;28;20041;-80
2022/03/06 03:34:38;;;;;;;15.98;9.88;;;0.50;99.90;;;;;;5050462;28;20040;-80
2022/03/06 03:37:04;;;;;;;17.27;10.30;;;0.60;99.90;;;;;;5050565;28;20126;-80
2022/03/06 03:39:30;;;;;;;16.05;9.75;;;0.60;99.90;;;;;;5033945;28;20041;-80
2022/03/06 03:41:55;;;;;;;16.75;10.20;;;0.60;99.90;;;;;;5050431;28;20124;-80
2022/03/06 03:44:21;;;;;;;16.42;9.70;;;0.70;99.90;;;;;;5050487;28;20507;-80
2022/03/06 03:46:47;;;;;;;18.75;9.30;;;0.70;99.90;;;;;;5050246;28;20041;-80
2022/03/06 03:49:14;;;;;;;16.58;9.55;;;0.70;99.90;;;;;;5050365;28;20053;-80
2022/03/06 03:51:40;;;;;;;17.08;9.13;;;0.70;99.90;;;;;;5033714;28;20157;-80
2022/03/06 03:54:06;;;;;;;19.73;9.65;;;0.80;99.90;;;;;;5050493;28;20040;-80
2022/03/06 03:56:31;;;;;;;15.35;8.55;;;0.80;99.90;;;;;;5050196;28;20170;-80
2022/03/06 03:58:57;;;;;;;14.68;8.63;;;0.80;99.90;;;;;;5049858;28;20081;-80
2022/03/06 04:01:22;;;;;;;14.52;8.77;;;0.80;99.90;;;;;;5050372;28;20049;-80
2022/03/06 04:03:48;;;;;;;16.25;9.02;;;0.90;99.90;;;;;;5033477;28;20033;-80
2022/03/06 04:06:14;;;;;;;16.85;9.35;;;0.90;99.90;;;;;;5050473;28;20095;-80
2022/03/06 04:08:40;;;;;;;17.05;9.05;;;0.90;99.90;;;;;;5049834;28;20494;-80
2022/03/06 04:11:06;;;;;;;15.15;8.38;;;0.90;99.90;;;;;;5050244;28;20135;-80
2022/03/06 04:13:31;;;;;;;14.73;8.30;;;0.90;99.90;;;;;;5050366;28;20083;-80
2022/03/06 04:15:57;;;;;;;14.50;8.20;;;1.00;99.90;;;;;;5049998;28;20503;-80
2022/03/06 04:18:23;;;;;;;16.30;8.32;;;1.00;99.90;;;;;;5049989;28;20041;-80
2022/03/06 04:20:48;;;;;;;15.40;9.00;;;1.00;99.90;;;;;;5050346;28;20041;-80
2022/03/06 04:23:14;;;;;;;14.98;8.60;;;1.00;99.90;;;;;;5050044;28;20047;-80
2022/03/06 04:25:40;;;;;;;14.27;8.18;;;1.00;99.90;;;;;;5050111;28;20041;-80
2022/03/06 04:28:07;;;;;;;15.68;8.57;;;1.00;99.90;;;;;;5049915;28;20080;-80
2022/03/06 04:30:32;;;;;;;13.90;8.15;;;1.00;99.90;;;;;;5034602;28;20068;-80
2022/03/06 04:32:58;;;;;;;14.85;8.57;;;1.00;99.90;;;;;;5053919;28;20190;-78
2022/03/06 04:35:24;;;;;;;14.05;8.23;;;1.00;99.90;;;;;;5038482;28;20041;-79
2022/03/06 04:37:50;;;;;;;13.82;8.57;;;1.00;99.90;;;;;;5053795;28;20100;-79
2022/03/06 04:40:15;;;;;;;17.88;8.77;;;1.00;99.90;;;;;;5053653;28;20120;-79
2022/03/06 04:42:41;;;;;;;14.23;7.93;;;1.00;99.90;;;;;;5053556;28;20033;-79
2022/03/06 04:45:08;;;;;;;14.60;7.35;;;1.10;99.90;;;;;;5053948;28;20045;-79
2022/03/06 04:47:34;;;;;;;13.88;7.60;;;1.00;99.90;;;;;;5053210;28;20077;-79
2022/03/06 04:50:00;;;;;;;16.33;7.72;;;1.00;99.90;;;;;;5053532;28;20040;-79
2022/03/06 04:52:25;;;;;;;14.18;7.90;;;0.90;99.90;;;;;;5053750;28;20044;-80
2022/03/06 04:54:51;;;;;;;15.93;8.73;;;0.90;99.90;;;;;;5053262;28;20506;-80
2022/03/06 04:57:16;;;;;;;15.15;8.02;;;0.90;99.90;;;;;;5053293;28;20120;-80
2022/03/06 04:59:42;;;;;;;12.25;6.75;;;0.90;99.90;;;;;;5053261;28;20053;-80
2022/03/06 05:02:08;;;;;;;14.02;7.10;;;0.90;99.90;;;;;;5052991;28;20127;-80
2022/03/06 05:04:34;;;;;;;16.70;8.43;;;0.80;99.90;;;;;;5053678;28;20041;-80
2022/03/06 05:06:59;;;;;;;13.23;7.22;;;0.80;99.90;;;;;;5052883;28;20571;-80
2022/03/06 05:09:25;;;;;;;14.68;7.60;;;0.80;99.90;;;;;;5059251;28;20032;-79
2022/03/06 05:11:51;;;;;;;14.25;8.00;;;0.80;99.90;;;;;;5072923;28;20089;-80
2022/03/06 05:14:17;;;;;;;14.02;7.13;;;0.80;99.90;;;;;;5073070;28;20159;-80
2022/03/06 05:16:42;;;;;;;14.68;8.05;;;0.80;99.90;;;;;;5072998;28;20041;-80
2022/03/06 05:19:08;;;;;;;14.55;7.97;;;0.80;99.90;;;;;;5073323;28;20079;-80
2022/03/06 05:21:35;;;;;;;13.75;7.38;;;0.80;99.90;;;;;;5073007;28;20044;-80
2022/03/06 05:24:00;;;;;;;12.35;6.63;;;0.80;99.90;;;;;;5056465;28;20520;-80
2022/03/06 05:26:26;;;;;;;11.57;6.13;;;0.80;99.90;;;;;;5073230;28;20044;-80
2022/03/06 05:28:51;;;;;;;12.73;7.60;;;0.80;99.90;;;;;;5072470;28;20757;-79
2022/03/06 05:31:18;;;;;;;13.82;6.55;;;0.80;99.90;;;;;;5072759;28;20157;-79
2022/03/06 05:33:44;;;;;;;13.30;7.45;;;0.80;99.90;;;;;;5072632;28;20119;-80
2022/03/06 05:36:10;;;;;;;12.13;6.85;;;0.80;99.90;;;;;;5056179;28;20119;-80
2022/03/06 05:38:36;;;;;;;13.10;7.03;;;0.80;99.90;;;;;;5072435;28;20047;-80
2022/03/06 05:41:02;;;;;;;12.25;6.53;;;0.80;99.90;;;;;;5036039;28;20064;-80
2022/03/06 05:43:28;;;;;;;11.45;6.15;;;0.70;99.90;;;;;;5051496;28;20062;-80
2022/03/06 05:45:53;;;;;;;12.23;6.93;;;0.70;99.90;;;;;;5052420;28;20041;-80
2022/03/06 05:48:22;;;;;;;14.40;6.85;;;0.80;99.90;;;;;;5052313;28;20119;-79
2022/03/06 05:50:48;;;;;;;12.60;6.32;;;0.70;99.90;;;;;;5052687;28;20099;-80
2022/03/06 05:53:14;;;;;;;14.30;7.20;;;0.70;99.90;;;;;;5035528;28;20449;-80
2022/03/06 05:55:40;;;;;;;10.07;5.72;;;0.70;99.90;;;;;;5052286;28;20037;-79
2022/03/06 05:58:06;;;;;;;11.77;6.15;;;0.70;99.90;;;;;;5035764;28;20041;-79
2022/03/06 06:00:31;;;;;;;11.93;6.22;;;0.70;99.90;;;;;;5035926;28;20079;-79
2022/03/06 06:02:57;;;;;;;12.52;6.65;;;0.70;99.90;;;;;;5035641;28;20120;-79
2022/03/06 06:05:23;;;;;;;12.45;6.30;;;0.70;99.90;;;;;;5035756;28;20498;-80
2022/03/06 06:07:49;;;;;;;10.68;5.82;;;0.70;99.90;;;;;;5051756;28;20037;-79
2022/03/06 06:10:15;;;;;;;14.63;6.80;;;0.70;99.90;;;;;;5052173;28;20490;-80
2022/03/06 06:12:41;;;;;;;11.27;6.25;;;0.70;99.90;;;;;;5051950;28;20120;-80
2022/03/06 06:15:08;;;;;;;11.25;5.55;;;0.70;99.90;;;;;;5052267;28;20080;-80
2022/03/06 06:17:34;;;;;;;12.82;6.05;;;0.70;99.90;;;;;;5052039;28;20052;-80
2022/03/06 06:20:00;;;;;;;13.68;6.43;;;0.70;99.90;;;;;;5035256;28;20044;-80
2022/03/06 06:22:28;;;;;;;11.45;5.85;;;0.70;99.90;;;;;;5051527;28;20395;-80
2022/03/06 06:24:54;;;;;;;12.52;5.90;;;0.70;99.90;;;;;;5050110;28;20049;-80
2022/03/06 06:27:20;;;;;;;11.60;5.80;;;0.70;99.90;;;;;;5050405;28;20049;-79
2022/03/06 06:29:46;;;;;;;10.55;5.68;;;0.70;99.90;;;;;;5034283;28;20033;-79
2022/03/06 06:32:11;;;;;;;11.30;5.45;;;0.70;99.90;;;;;;5034307;28;20401;-79
2022/03/06 06:34:37;;;;;;;10.75;5.60;;;0.70;99.90;;;;;;5050870;28;20040;-79
2022/03/06 06:37:03;;;;;;;12.85;5.25;;;0.70;99.90;;;;;;5050114;28;20033;-79
2022/03/06 06:39:28;;;;;;;11.02;5.18;;;0.70;99.90;;;;;;5050984;28;20481;-80
2022/03/06 06:41:54;;;;;;;13.45;5.65;;;0.70;99.90;;;;;;5050392;28;20555;-80
2022/03/06 06:44:20;;;;;;;10.68;4.90;;;0.80;99.90;;;;;;5050764;28;20032;-80
2022/03/06 06:46:46;;;;;;;11.18;5.28;;;0.80;99.90;;;;;;5034009;28;20510;-80
2022/03/06 06:49:11;;;;;;;14.48;4.90;;;0.90;99.90;;;;;;5033943;28;20048;-80
2022/03/06 06:51:40;;;;;;;12.15;5.15;;;0.90;99.90;;;;;;5050570;28;20115;-80
2022/03/06 06:54:06;;;;;;;13.23;5.05;;;1.00;99.90;;;;;;5050851;28;20041;-80
2022/03/06 06:56:32;;;;;;;11.30;4.90;;;1.00;99.90;;;;;;5051047;28;20572;-80
2022/03/06 06:58:57;;;;;;;9.98;5.22;;;1.10;99.90;;;;;;5050792;28;20585;-80
2022/03/06 07:01:24;;;;;;;12.00;4.82;;;1.10;99.90;;;;;;5050803;28;20390;-80
2022/03/06 07:03:50;;;;;;;10.50;4.45;;;1.20;99.90;;;;;;5049804;28;20045;-79
2022/03/06 07:06:16;;;;;;;8.38;4.63;;;1.20;99.90;;;;;;5033614;28;20110;-80
2022/03/06 07:08:42;;;;;;;9.13;4.20;;;1.20;99.90;;;;;;5050140;28;20433;-79
2022/03/06 07:11:08;;;;;;;10.70;4.20;;;1.30;99.90;;;;;;5033824;28;20490;-80
2022/03/06 07:13:33;;;;;;;10.85;4.47;;;1.30;99.90;;;;;;5050758;28;20037;-80
2022/03/06 07:15:59;;;;;;;9.25;4.20;;;1.40;99.90;;;;;;5033850;28;20045;-80
2022/03/06 07:18:25;;;;;;;9.32;4.05;;;1.40;99.90;;;;;;5033801;28;20078;-80
2022/03/06 07:20:50;;;;;;;9.77;4.18;;;1.50;99.90;;;;;;5050639;28;20521;-80
2022/03/06 07:23:16;;;;;;;8.32;4.00;;;1.50;99.90;;;;;;5050773;28;20048;-79
2022/03/06 07:25:42;;;;;;;7.82;3.88;;;1.60;99.90;;;;;;5049691;28;20036;-80
2022/03/06 07:28:08;;;;;;;8.32;3.65;;;1.60;99.90;;;;;;5049473;28;20045;-80
2022/03/06 07:30:34;;;;;;;8.90;3.42;;;1.70;99.90;;;;;;5050142;28;20091;-80
2022/03/06 07:33:00;;;;;;;8.43;3.63;;;1.70;99.90;;;;;;5033404;28;20608;-80
2022/03/06 07:35:27;;;;;;;8.25;3.30;;;1.70;99.90;;;;;;5033936;28;20033;-80
2022/03/06 07:37:52;;;;;;;7.90;3.55;;;1.80;99.90;;;;;;5050220;28;20106;-80
2022/03/06 07:40:19;;;;;;;9.68;3.78;;;1.80;99.90;;;;;;5050382;28;20041;-80
2022/03/06 07:42:46;;;;;;;8.77;3.58;;;1.90;99.90;;;;;;5050244;28;20044;-80
2022/03/06 07:45:12;;;;;;;9.45;3.30;;;1.90;99.90;;;;;;5050334;28;20033;-80
2022/03/06 07:47:38;;;;;;;8.05;3.65;;;2.00;99.90;;;;;;5049114;28;20045;-80
2022/03/06 07:50:05;;;;;;;8.65;3.42;;;2.10;99.90;;;;;;5049806;28;20552;-80
2022/03/06 07:52:30;;;;;;;7.53;3.42;;;2.10;99.90;;;;;;5033423;28;20055;-80
2022/03/06 07:54:57;;;;;;;9.23;3.70;;;2.10;99.90;;;;;;5050028;28;20502;-79
2022/03/06 07:57:22;;;;;;;8.00;3.53;;;2.10;99.90;;;;;;5049608;28;20127;-79
2022/03/06 07:59:48;;;;;;;8.35;3.50;;;2.20;99.90;;;;;;5050024;28;20627;-79
2022/03/06 08:02:14;;;;;;;9.38;3.83;;;2.20;99.90;;;;;;5049814;28;20039;-80
2022/03/06 08:04:39;;;;;;;10.35;3.97;;;2.30;99.90;;;;;;5049577;28;20056;-79
2022/03/06 08:07:06;;;;;;;9.23;3.67;;;2.40;99.90;;;;;;5050211;28;20078;-79
2022/03/06 08:09:31;;;;;;;8.52;3.63;;;2.40;99.90;;;;;;5049681;28;20126;-80
2022/03/06 08:11:57;;;;;;;9.10;3.72;;;2.40;99.90;;;;;;5049346;28;20077;-80
2022/03/06 08:14:23;;;;;;;9.40;3.72;;;2.50;99.90;;;;;;5049066;28;20044;-80
2022/03/06 08:16:48;;;;;;;9.55;3.80;;;2.50;99.90;;;;;;5049707;28;20033;-80
2022/03/06 08:19:14;;;;;;;9.77;4.00;;;2.60;99.90;;;;;;5049899;28;20129;-80
2022/03/06 08:21:39;;;;;;;9.43;3.90;;;2.70;99.90;;;;;;5049742;28;20033;-80
2022/03/06 08:24:05;;;;;;;9.20;3.55;;;2.80;99.90;;;;;;5049890;28;20037;-80
2022/03/06 08:26:31;;;;;;;8.98;4.13;;;2.90;99.90;;;;;;5033009;28;20380;-80
2022/03/06 08:28:57;;;;;;;9.25;4.25;;;2.90;99.90;;;;;;5049091;28;20489;-80
2022/03/06 08:31:23;;;;;;;11.65;4.18;;;3.00;99.90;;;;;;5049420;28;20529;-80
2022/03/06 08:33:49;;;;;;;12.93;3.78;;;3.10;99.90;;;;;;5049210;28;20053;-80
2022/03/06 08:36:15;;;;;;;9.02;3.65;;;3.10;99.90;;;;;;5049958;28;20111;-79
2022/03/06 08:38:41;;;;;;;8.18;3.30;;;3.20;99.90;;;;;;5049485;28;20506;-80
2022/03/06 08:41:07;;;;;;;9.27;3.65;;;3.30;99.90;;;;;;5049726;28;20062;-80
2022/03/06 08:43:32;;;;;;;8.70;3.42;;;3.40;99.80;;;;;;5049664;28;20048;-80
2022/03/06 08:45:58;;;;;;;11.90;3.75;;;3.50;99.50;;;;;;5049282;28;20048;-80
2022/03/06 08:48:24;;;;;;;9.18;3.67;;;3.50;99.20;;;;;;5048998;28;20121;-80
2022/03/06 08:50:49;;;;;;;7.72;3.10;;;3.60;99.20;;;;;;5049291;28;20037;-79
2022/03/06 08:53:16;;;;;;;8.77;3.25;;;3.70;98.90;;;;;;5049761;28;20045;-80
2022/03/06 08:55:42;;;;;;;10.02;3.45;;;3.80;98.50;;;;;;5032892;28;20123;-80
2022/03/06 08:58:08;;;;;;;11.27;3.33;;;3.80;98.30;;;;;;5033060;28;20124;-80
2022/03/06 09:00:33;;;;;;;8.77;3.08;;;3.90;97.90;;;;;;5048072;28;20052;-80
2022/03/06 09:02:59;;;;;;;11.10;3.83;;;4.00;97.80;;;;;;5048406;28;20041;-80
2022/03/06 09:05:25;;;;;;;7.00;3.00;;;4.10;97.80;;;;;;5033200;28;20060;-80
2022/03/06 09:07:50;;;;;;;7.47;3.05;;;4.20;97.60;;;;;;5049204;28;20041;-80
2022/03/06 09:10:16;;;;;;;7.38;2.92;;;4.30;97.00;;;;;;5049559;28;20406;-80
2022/03/06 09:12:42;;;;;;;8.05;2.90;;;4.40;96.50;;;;;;5049508;28;20040;-80
2022/03/06 09:15:10;;;;;;;8.95;3.38;;;4.50;96.00;;;;;;5049022;28;20037;-80
2022/03/06 09:17:36;;;;;;;8.18;3.22;;;4.60;95.90;;;;;;5034320;28;20040;-80
2022/03/06 09:20:03;;;;;;;7.95;3.20;;;4.60;95.50;;;;;;5052782;28;20041;-80
2022/03/06 09:22:28;;;;;;;8.10;3.22;;;4.70;95.20;;;;;;5052488;28;20525;-80
2022/03/06 09:24:54;;;;;;;8.43;3.33;;;4.80;94.40;;;;;;5052186;28;20080;-80
2022/03/06 09:27:20;;;;;;;7.43;3.20;;;4.90;94.50;;;;;;5035538;28;20126;-80
2022/03/06 09:29:45;;;;;;;8.52;3.20;;;5.10;94.30;;;;;;5054109;28;20032;-80
2022/03/06 09:32:11;;;;;;;9.18;3.45;;;5.20;93.70;;;;;;5053148;28;20049;-80
2022/03/06 09:34:36;;;;;;;8.32;3.85;;;5.30;93.00;;;;;;5053184;28;20090;-80
2022/03/06 09:37:02;;;;;;;10.30;4.00;;;5.40;92.80;;;;;;5052615;28;20041;-80
2022/03/06 09:39:28;;;;;;;7.00;3.20;;;5.50;92.50;;;;;;5052445;28;20040;-80
2022/03/06 09:41:55;;;;;;;9.63;3.67;;;5.60;92.20;;;;;;5052498;28;20044;-80
2022/03/06 09:44:23;;;;;;;7.72;3.45;;;5.70;91.80;;;;;;5052820;28;20052;-80
2022/03/06 09:46:52;;;;;;;8.80;3.53;;;5.80;91.20;;;;;;5035383;28;20041;-80
2022/03/06 09:49:18;;;;;;;8.75;3.78;;;5.90;90.70;;;;;;5052046;28;20049;-80
2022/03/06 09:51:43;;;;;;;8.52;4.07;;;6.00;90.80;;;;;;5052313;28;20040;-80
2022/03/06 09:54:11;;;;;;;7.85;4.07;;;6.20;90.90;;;;;;5052450;28;20149;-79
2022/03/06 09:56:37;;;;;;;8.27;3.70;;;6.20;90.00;;;;;;5036279;28;20123;-79
2022/03/06 09:59:03;;;;;;;9.50;4.75;;;6.30;88.50;;;;;;5035860;28;20450;-79
2022/03/06 10:01:29;;;;;;;9.98;4.05;;;6.30;88.10;;;;;;5053063;28;20375;-79
2022/03/06 10:03:54;;;;;;;8.77;4.18;;;6.50;88.60;;;;;;5036416;28;20966;-80
2022/03/06 10:06:20;;;;;;;10.80;4.50;;;6.60;89.10;;;;;;5072330;28;20052;-78
2022/03/06 10:08:45;;;;;;;9.27;4.07;;;6.70;89.40;;;;;;5069732;28;20089;-80
2022/03/06 10:11:13;;;;;;;8.48;3.33;;;6.80;87.80;;;;;;5052365;28;20083;-80
2022/03/06 10:13:44;;;;;;;9.00;4.03;;;6.80;86.60;;;;;;5052255;28;20041;-80
2022/03/06 10:16:18;;;;;;;7.22;3.30;;;6.90;85.50;;;;;;5034047;28;20048;-79
2022/03/06 10:18:48;;;;;;;8.85;4.10;;;7.00;85.50;;;;;;5051381;28;20398;-80
2022/03/06 10:21:20;;;;;;;10.90;4.20;;;7.10;84.90;;;;;;5034619;28;20048;-80
2022/03/06 10:23:48;;;;;;;8.55;3.40;;;7.10;84.10;;;;;;5051197;28;20049;-80
2022/03/06 10:26:20;;;;;;;8.63;3.47;;;7.20;82.80;;;;;;5034785;28;20041;-80
2022/03/06 10:28:51;;;;;;;8.95;3.47;;;7.30;81.90;;;;;;5050464;28;20040;-80
2022/03/06 10:31:18;;;;;;;7.93;3.55;;;7.30;80.70;;;;;;5051659;28;20036;-80
2022/03/06 10:34:08;;;;;;;7.65;3.05;;;7.30;80.80;;;;;;5051388;28;20116;-80
2022/03/06 10:36:36;;;;;;;8.25;3.78;;;7.50;80.70;;;;;;5051638;28;20032;-80
2022/03/06 10:39:04;;;;;;;8.25;3.55;;;7.60;80.90;;;;;;5034549;28;20045;-80
2022/03/06 10:41:35;;;;;;;8.30;3.50;;;7.70;80.10;;;;;;5035096;28;20375;-81
2022/03/06 10:44:01;;;;;;;7.40;3.35;;;7.80;78.00;;;;;;5034359;28;20059;-81
2022/03/06 10:46:27;;;;;;;7.60;3.65;;;7.90;77.90;;;;;;5050651;28;20086;-81
2022/03/06 10:49:01;;;;;;;10.18;3.95;;;8.00;77.80;;;;;;5050692;28;20041;-81
2022/03/06 10:51:27;;;;;;;7.70;3.40;;;8.00;76.00;;;;;;5051228;28;20033;-81
2022/03/06 10:53:59;;;;;;;7.63;3.28;;;8.20;76.40;;;;;;5050752;28;20036;-81
2022/03/06 10:56:26;;;;;;;10.65;3.88;;;8.20;74.40;;;;;;5034803;28;20102;-81
2022/03/06 10:58:52;;;;;;;8.00;3.30;;;8.30;74.70;;;;;;5050883;28;20125;-81
2022/03/06 11:01:18;;;;;;;8.90;3.72;;;8.40;74.30;;;;;;5050731;28;20119;-81
2022/03/06 11:03:43;;;;;;;6.95;2.88;;;8.50;74.90;;;;;;5049987;28;20059;-81
2022/03/06 11:06:11;;;;;;;6.95;3.35;;;8.60;73.50;;;;;;5049923;28;20087;-81
2022/03/06 11:08:38;;;;;;;9.65;3.30;;;8.70;73.80;;;;;;5049949;28;20517;-80
2022/03/06 11:11:08;;;;;;;8.75;3.42;;;8.90;73.10;;;;;;5032801;28;20091;-80
2022/03/06 11:13:35;;;;;;;8.30;3.38;;;8.90;70.50;;;;;;5050944;28;20110;-80
2022/03/06 11:16:01;;;;;;;7.72;2.70;;;8.90;69.40;;;;;;5051150;28;20473;-80
2022/03/06 11:18:28;;;;;;;7.45;2.90;;;8.90;68.90;;;;;;5033907;28;20133;-80
2022/03/06 11:20:57;;;;;;;6.68;2.78;;;9.10;69.30;;;;;;5050607;28;20123;-80
2022/03/06 11:23:43;;;;;;;8.38;3.00;;;9.10;67.20;;;;;;5049998;28;20055;-80
2022/03/06 11:26:17;;;;;;;7.78;2.78;;;9.20;66.20;;;;;;5049954;28;20095;-80
2022/03/06 11:29:07;;;;;;;6.85;2.40;;;9.20;65.90;;;;;;5033103;28;20509;-80
2022/03/06 11:31:50;;;;;;;6.15;2.30;;;9.40;65.80;;;;;;5050534;28;20037;-80
2022/03/06 11:34:25;;;;;;;6.03;2.13;;;9.50;64.20;;;;;;5050501;28;20037;-80
2022/03/06 11:36:52;;;;;;;7.53;2.50;;;9.50;64.30;;;;;;5033798;28;20040;-81
2022/03/06 11:39:29;;;;;;;7.72;2.40;;;9.60;65.20;;;;;;5033355;28;20106;-80
2022/03/06 11:42:04;;;;;;;7.82;2.70;;;9.70;65.00;;;;;;5049844;28;20045;-80
2022/03/06 11:44:33;;;;;;;9.30;3.20;;;9.90;64.40;;;;;;5049913;28;20072;-80
2022/03/06 11:47:00;;;;;;;6.05;2.10;;;9.80;62.70;;;;;;5049994;28;20051;-81
2022/03/06 11:49:35;;;;;;;7.00;2.50;;;9.90;62.00;;;;;;5032956;28;20133;-80
2022/03/06 11:52:01;;;;;;;6.93;2.40;;;10.00;62.70;;;;;;5049886;28;20040;-79
2022/03/06 11:54:41;;;;;;;6.80;2.20;;;10.20;62.90;;;;;;5033052;28;20041;-79
2022/03/06 11:57:07;;;;;;;6.50;2.38;;;10.30;61.90;;;;;;5033841;28;20028;-79
2022/03/06 11:59:35;;;;;;;7.30;2.40;;;10.50;62.30;;;;;;5049828;28;20391;-79
2022/03/06 12:02:14;;;;;;;6.50;2.20;;;10.60;62.10;;;;;;5049792;28;20048;-79
2022/03/06 12:04:47;;;;;;;5.05;2.00;;;10.80;60.90;;;;;;5033089;28;20041;-82
2022/03/06 12:07:15;;;;;;;7.70;2.75;;;10.70;59.70;;;;;;5049719;28;20651;-81
2022/03/06 12:09:43;;;;;;;8.63;2.58;;;10.60;58.50;;;;;;5047789;28;20049;-81
2022/03/06 12:12:17;;;;;;;6.82;2.65;;;10.60;59.20;;;;;;5049859;28;20049;-81
2022/03/06 12:14:51;;;;;;;7.65;2.30;;;10.80;59.10;;;;;;5033570;28;20044;-81
2022/03/06 12:17:18;;;;;;;8.30;2.72;;;10.80;58.30;;;;;;5050097;28;20457;-81
2022/03/06 12:19:44;;;;;;;9.05;2.33;;;11.00;58.50;;;;;;5049989;28;20045;-81
2022/03/06 12:22:15;;;;;;;7.85;2.67;;;11.20;58.20;;;;;;5050099;28;20501;-82
2022/03/06 12:24:43;;;;;;;5.88;2.22;;;11.20;57.10;;;;;;5032704;28;20076;-81
2022/03/06 12:27:13;;;;;;;7.28;2.42;;;11.30;57.40;;;;;;5049645;28;20045;-81
2022/03/06 12:29:45;;;;;;;8.88;2.85;;;11.40;56.80;;;;;;5049162;28;20032;-81
2022/03/06 12:32:26;;;;;;;5.85;2.20;;;11.70;57.00;;;;;;5050028;28;20080;-81
2022/03/06 12:35:01;;;;;;;7.15;2.40;;;11.70;56.40;;;;;;5049642;28;20041;-81
2022/03/06 12:37:32;;;;;;;8.60;2.80;;;11.70;56.10;;;;;;5049690;28;20065;-81
2022/03/06 12:39:59;;;;;;;7.85;2.75;;;11.80;56.40;;;;;;5033449;28;20398;-81
2022/03/06 12:42:30;;;;;;;8.63;2.53;;;12.00;56.00;;;;;;5066242;28;20412;-81
2022/03/06 12:45:02;;;;;;;7.13;2.38;;;12.10;54.50;;;;;;5052499;28;20489;-81
2022/03/06 12:47:29;;;;;;;6.93;2.50;;;12.10;54.00;;;;;;5052248;28;20072;-81